createdAt,value
2022-09-26T00:05:21.312Z,106.43
2022-09-26T00:15:26.190Z,102.67
2022-09-26T00:25:29.421Z,100.17
2022-09-26T00:35:34.003Z,100.40
2022-09-26T00:45:37.299Z,103.27
2022-09-26T00:55:47.396Z,98.37
2022-09-26T01:05:51.218Z,103.60
2022-09-26T01:15:55.893Z,99.07
2022-09-26T01:26:24.027Z,103.40
2022-09-26T01:36:58.808Z,98.97
2022-09-26T01:47:13.092Z,98.33
2022-09-26T01:57:27.693Z,102.17
2022-09-26T02:07:37.843Z,102.17
2022-09-26T02:17:47.692Z,98.17
2022-09-26T02:27:51.304Z,103.27
2022-09-26T02:37:56.027Z,100.33
2022-09-26T02:48:19.748Z,100.20
2022-09-26T02:58:36.247Z,101.83
2022-09-26T03:08:45.253Z,100.77
2022-09-26T03:18:56.581Z,100.17
2022-09-26T03:29:00.104Z,100.67
2022-09-26T03:39:07.792Z,101.20
2022-09-26T03:49:17.474Z,99.67
2022-09-26T03:59:22.348Z,101.80
2022-09-26T04:09:27.568Z,101.73
2022-09-26T04:19:33.753Z,98.97
2022-09-26T04:29:37.906Z,100.43
2022-09-26T04:39:48.950Z,99.23
2022-09-26T04:49:52.587Z,101.00
2022-09-26T04:59:57.791Z,101.80
2022-09-26T05:10:01.096Z,98.73
2022-09-26T05:20:09.108Z,101.87
2022-09-26T05:30:31.360Z,100.70
2022-09-26T05:40:54.345Z,102.40
2022-09-26T05:51:04.960Z,104.83
2022-09-26T06:01:11.815Z,103.17
2022-09-26T06:11:17.602Z,102.23
2022-09-26T06:21:22.757Z,103.47
2022-09-26T06:31:34.490Z,118.10
2022-09-26T06:41:48.181Z,124.87
2022-09-26T06:52:12.032Z,114.87
2022-09-26T07:02:17.055Z,115.47
2022-09-26T07:12:47.259Z,115.47
2022-09-26T07:22:53.678Z,121.13
2022-09-26T07:33:01.141Z,116.83
2022-09-26T07:43:20.007Z,118.37
2022-09-26T07:53:27.426Z,122.47
2022-09-26T08:04:13.397Z,113.87
2022-09-26T08:14:17.818Z,114.90
2022-09-26T08:24:35.838Z,114.27
2022-09-26T08:34:57.704Z,117.73
2022-09-26T08:45:55.121Z,115.37
2022-09-26T08:56:18.613Z,115.57
2022-09-26T09:06:28.641Z,123.20
2022-09-26T09:16:55.937Z,117.10
2022-09-26T09:37:55.149Z,120.33
2022-09-26T09:48:14.810Z,125.33
2022-09-26T09:58:41.481Z,121.20
2022-09-26T10:08:46.601Z,115.10
2022-09-26T10:19:10.392Z,113.83
2022-09-26T10:29:25.972Z,116.77
2022-09-26T10:39:49.356Z,110.47
2022-09-26T10:49:59.414Z,105.80
2022-09-26T11:00:37.615Z,112.80
2022-09-26T11:10:49.372Z,110.77
2022-09-26T11:21:28.622Z,111.30
2022-09-26T11:31:41.062Z,112.97
2022-09-26T11:42:25.947Z,121.47
2022-09-26T11:52:54.485Z,125.17
2022-09-26T12:03:23.338Z,122.97
2022-09-26T12:13:42.478Z,118.43
2022-09-26T12:23:51.697Z,112.33
2022-09-26T12:34:29.888Z,116.80
2022-09-26T12:45:01.046Z,114.00
2022-09-26T12:55:20.969Z,120.00
2022-09-26T13:06:08.967Z,136.10
2022-09-26T13:16:31.843Z,122.13
2022-09-26T13:26:43.809Z,124.85
2022-09-26T13:36:49.865Z,152.73
2022-09-26T13:47:06.786Z,128.90
2022-09-26T14:08:10.887Z,135.00
2022-09-26T14:18:34.833Z,129.00
2022-09-26T14:28:41.561Z,119.97
2022-09-26T14:38:48.628Z,139.27
2022-09-26T14:49:01.421Z,114.23
2022-09-26T14:59:40.925Z,104.73
2022-09-26T15:09:51.179Z,116.67
2022-09-26T15:19:58.940Z,112.47
2022-09-26T15:30:17.427Z,119.83
2022-09-26T15:40:23.915Z,99.97
2022-09-26T15:50:35.590Z,115.63
2022-09-26T16:00:43.866Z,96.33
2022-09-26T16:10:55.415Z,93.03
2022-09-26T16:21:20.018Z,89.97
2022-09-26T16:31:47.970Z,109.67
2022-09-26T16:42:02.712Z,113.30
2022-09-26T16:52:26.878Z,113.97
2022-09-26T17:02:30.739Z,112.00
2022-09-26T17:12:35.592Z,93.63
2022-09-26T17:22:39.126Z,91.83
2022-09-26T17:32:49.717Z,92.07
2022-09-26T17:42:55.512Z,91.43
2022-09-26T17:53:03.255Z,93.43
2022-09-26T18:03:15.670Z,94.57
2022-09-26T18:13:26.757Z,98.10
2022-09-26T18:23:39.611Z,112.10
2022-09-26T18:33:44.397Z,99.00
2022-09-26T18:43:51.183Z,113.37
2022-09-26T18:53:55.929Z,106.40
2022-09-26T19:04:04.587Z,109.33
2022-09-26T19:14:15.755Z,112.57
2022-09-26T19:24:27.939Z,103.97
2022-09-26T19:34:33.417Z,108.00
2022-09-26T19:44:36.795Z,112.73
2022-09-26T19:54:41.565Z,120.77
2022-09-26T20:04:45.657Z,92.10
2022-09-26T20:14:50.391Z,93.27
2022-09-26T20:24:55.845Z,108.67
2022-09-26T20:35:01.526Z,98.47
2022-09-26T20:45:06.098Z,99.20
2022-09-26T20:55:16.720Z,88.57
2022-09-26T21:05:24.592Z,112.03
2022-09-26T21:15:32.147Z,95.73
2022-09-26T21:25:35.512Z,87.83
2022-09-26T21:35:40.853Z,92.13
2022-09-26T21:45:46.507Z,92.90
2022-09-26T21:55:55.230Z,94.43
2022-09-26T22:05:59.301Z,90.60
2022-09-26T22:16:11.620Z,92.47
2022-09-26T22:26:14.925Z,96.00
2022-09-26T22:36:19.629Z,92.57
2022-09-26T22:46:23.029Z,98.33
2022-09-26T22:56:27.884Z,94.67
2022-09-26T23:06:33.065Z,90.67
2022-09-26T23:16:38.530Z,90.30
2022-09-26T23:26:41.862Z,87.40
2022-09-26T23:36:46.555Z,90.87
2022-09-26T23:46:49.855Z,88.67
2022-09-26T23:56:54.585Z,91.53
